sensor_id;sensor_type;location;lat;lon;timestamp;temperature;humidity
26707;DHT22;14319;49.422;10.934;2023-01-24T00:00:45;2.10;85.80
26707;DHT22;14319;49.422;10.934;2023-01-24T00:02:46;2.00;85.60
26707;DHT22;14319;49.422;10.934;2023-01-24T00:04:46;2.10;86.00
26707;DHT22;14319;49.422;10.934;2023-01-24T00:06:47;2.40;85.00
26707;DHT22;14319;49.422;10.934;2023-01-24T00:08:48;2.60;83.80
26707;DHT22;14319;49.422;10.934;2023-01-24T00:10:49;2.60;83.20
26707;DHT22;14319;49.422;10.934;2023-01-24T00:12:49;2.70;82.80
26707;DHT22;14319;49.422;10.934;2023-01-24T00:14:50;2.80;83.20
26707;DHT22;14319;49.422;10.934;2023-01-24T00:16:51;2.90;82.80
26707;DHT22;14319;49.422;10.934;2023-01-24T00:18:52;3.10;81.70
26707;DHT22;14319;49.422;10.934;2023-01-24T00:20:59;3.10;80.70
26707;DHT22;14319;49.422;10.934;2023-01-24T00:22:59;3.20;80.40
26707;DHT22;14319;49.422;10.934;2023-01-24T00:25:00;3.20;80.70
26707;DHT22;14319;49.422;10.934;2023-01-24T00:27:01;3.20;80.70
26707;DHT22;14319;49.422;10.934;2023-01-24T00:29:01;3.20;80.10
26707;DHT22;14319;49.422;10.934;2023-01-24T00:31:02;3.20;80.50
26707;DHT22;14319;49.422;10.934;2023-01-24T00:33:04;3.20;80.70
26707;DHT22;14319;49.422;10.934;2023-01-24T00:35:04;3.30;80.10
26707;DHT22;14319;49.422;10.934;2023-01-24T00:37:05;3.30;79.70
26707;DHT22;14319;49.422;10.934;2023-01-24T00:39:06;3.30;80.00
26707;DHT22;14319;49.422;10.934;2023-01-24T00:41:06;3.30;80.20
26707;DHT22;14319;49.422;10.934;2023-01-24T00:43:07;3.20;80.50
26707;DHT22;14319;49.422;10.934;2023-01-24T00:45:10;3.20;80.30
26707;DHT22;14319;49.422;10.934;2023-01-24T00:47:10;3.20;80.30
26707;DHT22;14319;49.422;10.934;2023-01-24T00:49:11;3.10;80.80
26707;DHT22;14319;49.422;10.934;2023-01-24T00:51:12;3.10;80.80
26707;DHT22;14319;49.422;10.934;2023-01-24T00:53:12;3.10;80.70
26707;DHT22;14319;49.422;10.934;2023-01-24T00:55:13;3.10;81.00
26707;DHT22;14319;49.422;10.934;2023-01-24T00:57:13;3.10;80.70
26707;DHT22;14319;49.422;10.934;2023-01-24T00:59:14;3.10;80.90
26707;DHT22;14319;49.422;10.934;2023-01-24T01:01:16;3.10;80.40
26707;DHT22;14319;49.422;10.934;2023-01-24T01:03:21;3.10;80.40
26707;DHT22;14319;49.422;10.934;2023-01-24T01:05:22;3.10;80.90
26707;DHT22;14319;49.422;10.934;2023-01-24T01:07:22;3.10;81.10
26707;DHT22;14319;49.422;10.934;2023-01-24T01:09:23;3.10;81.20
26707;DHT22;14319;49.422;10.934;2023-01-24T01:11:23;3.20;80.60
26707;DHT22;14319;49.422;10.934;2023-01-24T01:13:24;3.20;80.60
26707;DHT22;14319;49.422;10.934;2023-01-24T01:15:25;3.20;80.10
26707;DHT22;14319;49.422;10.934;2023-01-24T01:17:26;3.20;80.50
26707;DHT22;14319;49.422;10.934;2023-01-24T01:19:26;3.20;80.50
26707;DHT22;14319;49.422;10.934;2023-01-24T01:21:27;3.20;80.70
26707;DHT22;14319;49.422;10.934;2023-01-24T01:23:27;3.20;80.90
26707;DHT22;14319;49.422;10.934;2023-01-24T01:25:28;3.20;80.90
26707;DHT22;14319;49.422;10.934;2023-01-24T01:27:28;3.20;81.00
26707;DHT22;14319;49.422;10.934;2023-01-24T01:29:29;3.20;81.30
26707;DHT22;14319;49.422;10.934;2023-01-24T01:31:29;3.20;81.10
26707;DHT22;14319;49.422;10.934;2023-01-24T01:33:30;3.20;81.10
26707;DHT22;14319;49.422;10.934;2023-01-24T01:35:31;3.20;80.70
26707;DHT22;14319;49.422;10.934;2023-01-24T01:37:31;3.20;80.70
26707;DHT22;14319;49.422;10.934;2023-01-24T01:39:32;3.20;80.30
26707;DHT22;14319;49.422;10.934;2023-01-24T01:41:32;3.10;80.90
26707;DHT22;14319;49.422;10.934;2023-01-24T01:43:32;3.10;80.60
26707;DHT22;14319;49.422;10.934;2023-01-24T01:45:46;3.10;80.90
26707;DHT22;14319;49.422;10.934;2023-01-24T01:47:47;3.20;81.40
26707;DHT22;14319;49.422;10.934;2023-01-24T01:51:52;3.20;80.90
26707;DHT22;14319;49.422;10.934;2023-01-24T01:54:01;3.20;80.40
26707;DHT22;14319;49.422;10.934;2023-01-24T01:56:04;3.20;81.00
26707;DHT22;14319;49.422;10.934;2023-01-24T01:58:06;3.20;80.50
26707;DHT22;14319;49.422;10.934;2023-01-24T02:00:09;3.20;80.70
26707;DHT22;14319;49.422;10.934;2023-01-24T02:02:13;3.10;81.10
26707;DHT22;14319;49.422;10.934;2023-01-24T02:04:14;3.10;81.00
26707;DHT22;14319;49.422;10.934;2023-01-24T02:06:26;3.10;81.50
26707;DHT22;14319;49.422;10.934;2023-01-24T02:08:27;3.00;81.30
26707;DHT22;14319;49.422;10.934;2023-01-24T02:10:28;3.10;81.10
26707;DHT22;14319;49.422;10.934;2023-01-24T02:12:50;3.00;80.80
26707;DHT22;14319;49.422;10.934;2023-01-24T02:15:11;3.10;80.90
26707;DHT22;14319;49.422;10.934;2023-01-24T02:17:31;3.00;81.00
26707;DHT22;14319;49.422;10.934;2023-01-24T02:21:51;3.00;81.50
26707;DHT22;14319;49.422;10.934;2023-01-24T02:23:58;3.00;81.70
26707;DHT22;14319;49.422;10.934;2023-01-24T02:26:07;3.00;81.10
26707;DHT22;14319;49.422;10.934;2023-01-24T02:28:07;3.10;81.00
26707;DHT22;14319;49.422;10.934;2023-01-24T02:30:08;3.00;80.80
26707;DHT22;14319;49.422;10.934;2023-01-24T02:32:09;3.00;80.60
26707;DHT22;14319;49.422;10.934;2023-01-24T02:34:10;3.10;80.70
26707;DHT22;14319;49.422;10.934;2023-01-24T02:36:15;3.00;80.70
26707;DHT22;14319;49.422;10.934;2023-01-24T02:38:27;3.00;80.90
26707;DHT22;14319;49.422;10.934;2023-01-24T02:40:29;3.00;81.00
26707;DHT22;14319;49.422;10.934;2023-01-24T02:42:33;3.10;80.90
26707;DHT22;14319;49.422;10.934;2023-01-24T02:44:44;3.10;80.50
26707;DHT22;14319;49.422;10.934;2023-01-24T02:46:46;3.10;80.30
26707;DHT22;14319;49.422;10.934;2023-01-24T02:48:49;3.10;80.30
26707;DHT22;14319;49.422;10.934;2023-01-24T02:50:49;3.10;80.70
26707;DHT22;14319;49.422;10.934;2023-01-24T02:53:09;3.10;80.20
26707;DHT22;14319;49.422;10.934;2023-01-24T02:55:28;3.10;80.50
26707;DHT22;14319;49.422;10.934;2023-01-24T02:57:29;3.10;80.60
26707;DHT22;14319;49.422;10.934;2023-01-24T02:59:48;3.10;80.40
26707;DHT22;14319;49.422;10.934;2023-01-24T03:01:49;3.00;80.40
26707;DHT22;14319;49.422;10.934;2023-01-24T03:03:50;3.10;80.80
26707;DHT22;14319;49.422;10.934;2023-01-24T03:05:51;3.10;80.30
26707;DHT22;14319;49.422;10.934;2023-01-24T03:08:01;3.00;80.70
26707;DHT22;14319;49.422;10.934;2023-01-24T03:10:01;3.10;80.50
26707;DHT22;14319;49.422;10.934;2023-01-24T03:12:04;3.10;79.90
26707;DHT22;14319;49.422;10.934;2023-01-24T03:14:27;3.10;79.80
26707;DHT22;14319;49.422;10.934;2023-01-24T03:16:46;3.10;80.00
26707;DHT22;14319;49.422;10.934;2023-01-24T03:19:06;3.10;80.30
26707;DHT22;14319;49.422;10.934;2023-01-24T03:21:24;3.00;80.40
26707;DHT22;14319;49.422;10.934;2023-01-24T03:23:44;3.00;80.10
26707;DHT22;14319;49.422;10.934;2023-01-24T03:26:03;3.00;79.80
26707;DHT22;14319;49.422;10.934;2023-01-24T03:28:22;3.00;80.00
26707;DHT22;14319;49.422;10.934;2023-01-24T03:30:41;3.00;80.30
26707;DHT22;14319;49.422;10.934;2023-01-24T03:33:01;3.00;79.80
26707;DHT22;14319;49.422;10.934;2023-01-24T03:35:21;3.10;79.80
26707;DHT22;14319;49.422;10.934;2023-01-24T03:37:23;3.00;79.90
26707;DHT22;14319;49.422;10.934;2023-01-24T03:39:44;3.00;80.60
26707;DHT22;14319;49.422;10.934;2023-01-24T03:42:04;3.00;80.60
26707;DHT22;14319;49.422;10.934;2023-01-24T03:44:05;3.00;80.00
26707;DHT22;14319;49.422;10.934;2023-01-24T03:46:05;2.90;80.10
26707;DHT22;14319;49.422;10.934;2023-01-24T03:48:17;2.90;79.90
26707;DHT22;14319;49.422;10.934;2023-01-24T03:50:33;2.90;79.50
26707;DHT22;14319;49.422;10.934;2023-01-24T03:52:53;3.00;79.50
26707;DHT22;14319;49.422;10.934;2023-01-24T03:54:54;2.90;79.70
26707;DHT22;14319;49.422;10.934;2023-01-24T03:56:55;3.00;79.60
26707;DHT22;14319;49.422;10.934;2023-01-24T03:58:57;3.00;79.60
26707;DHT22;14319;49.422;10.934;2023-01-24T04:01:00;3.00;79.70
26707;DHT22;14319;49.422;10.934;2023-01-24T04:03:19;3.00;79.20
26707;DHT22;14319;49.422;10.934;2023-01-24T04:05:20;2.90;79.50
26707;DHT22;14319;49.422;10.934;2023-01-24T04:07:21;3.00;79.60
26707;DHT22;14319;49.422;10.934;2023-01-24T04:09:22;2.90;79.40
26707;DHT22;14319;49.422;10.934;2023-01-24T04:11:22;2.90;80.20
26707;DHT22;14319;49.422;10.934;2023-01-24T04:13:27;2.90;80.40
26707;DHT22;14319;49.422;10.934;2023-01-24T04:15:29;3.00;79.80
26707;DHT22;14319;49.422;10.934;2023-01-24T04:17:50;3.00;79.90
26707;DHT22;14319;49.422;10.934;2023-01-24T04:19:51;3.00;79.60
26707;DHT22;14319;49.422;10.934;2023-01-24T04:21:52;2.90;79.60
26707;DHT22;14319;49.422;10.934;2023-01-24T04:23:53;3.00;80.00
26707;DHT22;14319;49.422;10.934;2023-01-24T04:25:54;2.90;79.40
26707;DHT22;14319;49.422;10.934;2023-01-24T04:27:59;3.00;80.10
26707;DHT22;14319;49.422;10.934;2023-01-24T04:30:06;2.90;80.50
26707;DHT22;14319;49.422;10.934;2023-01-24T04:32:09;3.00;79.60
26707;DHT22;14319;49.422;10.934;2023-01-24T04:34:33;3.00;80.00
26707;DHT22;14319;49.422;10.934;2023-01-24T04:36:34;3.00;80.40
26707;DHT22;14319;49.422;10.934;2023-01-24T04:38:35;3.00;80.00
26707;DHT22;14319;49.422;10.934;2023-01-24T04:40:40;3.00;79.60
26707;DHT22;14319;49.422;10.934;2023-01-24T04:42:41;2.90;79.20
26707;DHT22;14319;49.422;10.934;2023-01-24T04:44:42;3.00;79.50
26707;DHT22;14319;49.422;10.934;2023-01-24T04:46:44;2.90;79.50
26707;DHT22;14319;49.422;10.934;2023-01-24T04:48:46;2.80;80.00
26707;DHT22;14319;49.422;10.934;2023-01-24T04:50:46;2.90;80.10
26707;DHT22;14319;49.422;10.934;2023-01-24T04:52:47;2.90;80.30
26707;DHT22;14319;49.422;10.934;2023-01-24T04:54:47;2.90;80.30
26707;DHT22;14319;49.422;10.934;2023-01-24T04:56:49;2.90;80.10
26707;DHT22;14319;49.422;10.934;2023-01-24T04:58:50;3.00;79.70
26707;DHT22;14319;49.422;10.934;2023-01-24T05:00:52;3.00;79.60
26707;DHT22;14319;49.422;10.934;2023-01-24T05:02:52;2.90;79.50
26707;DHT22;14319;49.422;10.934;2023-01-24T05:04:55;3.00;79.10
26707;DHT22;14319;49.422;10.934;2023-01-24T05:06:56;3.00;79.40
26707;DHT22;14319;49.422;10.934;2023-01-24T05:08:56;3.00;78.60
26707;DHT22;14319;49.422;10.934;2023-01-24T05:11:02;2.90;79.60
26707;DHT22;14319;49.422;10.934;2023-01-24T05:13:06;2.90;79.60
26707;DHT22;14319;49.422;10.934;2023-01-24T05:15:07;2.90;79.90
26707;DHT22;14319;49.422;10.934;2023-01-24T05:17:07;3.00;80.00
26707;DHT22;14319;49.422;10.934;2023-01-24T05:19:09;3.00;79.80
26707;DHT22;14319;49.422;10.934;2023-01-24T05:21:10;2.90;79.80
26707;DHT22;14319;49.422;10.934;2023-01-24T05:23:12;3.00;80.00
26707;DHT22;14319;49.422;10.934;2023-01-24T05:25:16;3.10;79.90
26707;DHT22;14319;49.422;10.934;2023-01-24T05:27:17;3.00;79.50
26707;DHT22;14319;49.422;10.934;2023-01-24T05:29:24;3.00;79.40
26707;DHT22;14319;49.422;10.934;2023-01-24T05:31:27;3.00;79.70
26707;DHT22;14319;49.422;10.934;2023-01-24T05:33:29;3.10;79.50
26707;DHT22;14319;49.422;10.934;2023-01-24T05:35:29;3.10;79.30
26707;DHT22;14319;49.422;10.934;2023-01-24T05:37:31;3.20;79.00
26707;DHT22;14319;49.422;10.934;2023-01-24T05:39:32;3.10;79.20
26707;DHT22;14319;49.422;10.934;2023-01-24T05:41:33;3.10;79.00
26707;DHT22;14319;49.422;10.934;2023-01-24T05:43:35;3.00;79.20
26707;DHT22;14319;49.422;10.934;2023-01-24T05:45:35;3.00;79.20
26707;DHT22;14319;49.422;10.934;2023-01-24T05:47:38;3.10;79.00
26707;DHT22;14319;49.422;10.934;2023-01-24T05:49:40;3.00;79.40
26707;DHT22;14319;49.422;10.934;2023-01-24T05:51:40;3.00;79.50
26707;DHT22;14319;49.422;10.934;2023-01-24T05:53:42;3.00;79.10
26707;DHT22;14319;49.422;10.934;2023-01-24T05:55:42;3.00;79.50
26707;DHT22;14319;49.422;10.934;2023-01-24T05:57:43;2.90;79.20
26707;DHT22;14319;49.422;10.934;2023-01-24T05:59:52;3.00;79.00
26707;DHT22;14319;49.422;10.934;2023-01-24T06:01:53;3.10;79.00
26707;DHT22;14319;49.422;10.934;2023-01-24T06:03:54;3.10;78.90
26707;DHT22;14319;49.422;10.934;2023-01-24T06:05:55;3.10;78.60
26707;DHT22;14319;49.422;10.934;2023-01-24T06:07:57;3.00;78.50
26707;DHT22;14319;49.422;10.934;2023-01-24T06:09:58;3.00;79.50
26707;DHT22;14319;49.422;10.934;2023-01-24T06:11:58;3.10;79.40
26707;DHT22;14319;49.422;10.934;2023-01-24T06:13:59;3.10;79.10
26707;DHT22;14319;49.422;10.934;2023-01-24T06:16:04;3.00;78.50
26707;DHT22;14319;49.422;10.934;2023-01-24T06:18:06;3.10;78.90
26707;DHT22;14319;49.422;10.934;2023-01-24T06:20:09;3.00;78.70
26707;DHT22;14319;49.422;10.934;2023-01-24T06:26:27;3.00;79.60
26707;DHT22;14319;49.422;10.934;2023-01-24T06:28:28;2.90;79.50
26707;DHT22;14319;49.422;10.934;2023-01-24T06:30:28;3.00;79.70
26707;DHT22;14319;49.422;10.934;2023-01-24T06:32:41;3.00;79.30
26707;DHT22;14319;49.422;10.934;2023-01-24T06:37:25;3.10;79.00
26707;DHT22;14319;49.422;10.934;2023-01-24T06:39:21;3.00;79.10
26707;DHT22;14319;49.422;10.934;2023-01-24T06:41:22;3.00;78.80
26707;DHT22;14319;49.422;10.934;2023-01-24T06:43:23;3.00;79.20
26707;DHT22;14319;49.422;10.934;2023-01-24T06:45:23;3.00;79.40
26707;DHT22;14319;49.422;10.934;2023-01-24T06:47:24;3.00;79.10
26707;DHT22;14319;49.422;10.934;2023-01-24T06:49:27;3.00;79.00
26707;DHT22;14319;49.422;10.934;2023-01-24T06:51:27;3.10;79.20
26707;DHT22;14319;49.422;10.934;2023-01-24T06:53:28;3.10;79.30
26707;DHT22;14319;49.422;10.934;2023-01-24T06:55:29;3.10;79.40
26707;DHT22;14319;49.422;10.934;2023-01-24T06:57:29;3.10;79.50
26707;DHT22;14319;49.422;10.934;2023-01-24T06:59:30;3.20;79.00
26707;DHT22;14319;49.422;10.934;2023-01-24T07:01:30;3.20;78.90
26707;DHT22;14319;49.422;10.934;2023-01-24T07:03:31;3.10;78.60
26707;DHT22;14319;49.422;10.934;2023-01-24T07:05:32;3.10;79.00
26707;DHT22;14319;49.422;10.934;2023-01-24T07:07:32;3.20;79.20
26707;DHT22;14319;49.422;10.934;2023-01-24T07:09:33;3.10;80.00
26707;DHT22;14319;49.422;10.934;2023-01-24T07:11:33;3.20;79.50
26707;DHT22;14319;49.422;10.934;2023-01-24T07:13:34;3.20;79.00
26707;DHT22;14319;49.422;10.934;2023-01-24T07:15:37;3.20;79.40
26707;DHT22;14319;49.422;10.934;2023-01-24T07:17:38;3.30;79.80
26707;DHT22;14319;49.422;10.934;2023-01-24T07:19:38;3.30;79.40
26707;DHT22;14319;49.422;10.934;2023-01-24T07:21:39;3.40;79.00
26707;DHT22;14319;49.422;10.934;2023-01-24T07:23:43;3.40;79.10
26707;DHT22;14319;49.422;10.934;2023-01-24T07:25:43;3.40;79.30
26707;DHT22;14319;49.422;10.934;2023-01-24T07:27:44;3.40;78.70
26707;DHT22;14319;49.422;10.934;2023-01-24T07:29:45;3.40;78.60
26707;DHT22;14319;49.422;10.934;2023-01-24T07:31:46;3.50;78.70
26707;DHT22;14319;49.422;10.934;2023-01-24T07:33:48;3.40;78.50
26707;DHT22;14319;49.422;10.934;2023-01-24T07:35:49;3.50;78.70
26707;DHT22;14319;49.422;10.934;2023-01-24T07:37:49;3.40;78.60
26707;DHT22;14319;49.422;10.934;2023-01-24T07:39:50;3.50;78.90
26707;DHT22;14319;49.422;10.934;2023-01-24T07:41:50;3.50;78.60
26707;DHT22;14319;49.422;10.934;2023-01-24T07:43:51;3.50;78.40
26707;DHT22;14319;49.422;10.934;2023-01-24T07:45:52;3.50;78.30
26707;DHT22;14319;49.422;10.934;2023-01-24T07:47:56;3.50;78.80
26707;DHT22;14319;49.422;10.934;2023-01-24T07:49:57;3.40;78.60
26707;DHT22;14319;49.422;10.934;2023-01-24T07:51:58;3.50;78.70
26707;DHT22;14319;49.422;10.934;2023-01-24T07:53:58;3.50;78.60
26707;DHT22;14319;49.422;10.934;2023-01-24T07:55:59;3.50;78.70
26707;DHT22;14319;49.422;10.934;2023-01-24T07:58:01;3.50;78.70
26707;DHT22;14319;49.422;10.934;2023-01-24T08:00:02;3.50;78.40
26707;DHT22;14319;49.422;10.934;2023-01-24T08:02:12;3.50;78.40
26707;DHT22;14319;49.422;10.934;2023-01-24T08:04:12;3.50;78.50
26707;DHT22;14319;49.422;10.934;2023-01-24T08:06:13;3.50;78.40
26707;DHT22;14319;49.422;10.934;2023-01-24T08:08:13;3.50;78.20
26707;DHT22;14319;49.422;10.934;2023-01-24T08:10:14;3.50;78.50
26707;DHT22;14319;49.422;10.934;2023-01-24T08:12:14;3.50;78.60
26707;DHT22;14319;49.422;10.934;2023-01-24T08:14:15;3.50;79.10
26707;DHT22;14319;49.422;10.934;2023-01-24T08:16:16;3.50;78.10
26707;DHT22;14319;49.422;10.934;2023-01-24T08:18:17;3.60;79.00
26707;DHT22;14319;49.422;10.934;2023-01-24T08:20:18;3.60;78.70
26707;DHT22;14319;49.422;10.934;2023-01-24T08:22:18;3.50;79.00
26707;DHT22;14319;49.422;10.934;2023-01-24T08:24:19;3.50;78.50
26707;DHT22;14319;49.422;10.934;2023-01-24T08:26:19;3.50;78.30
26707;DHT22;14319;49.422;10.934;2023-01-24T08:28:20;3.50;78.10
26707;DHT22;14319;49.422;10.934;2023-01-24T08:30:20;3.50;78.60
26707;DHT22;14319;49.422;10.934;2023-01-24T08:32:21;3.40;78.30
26707;DHT22;14319;49.422;10.934;2023-01-24T08:34:21;3.40;78.60
26707;DHT22;14319;49.422;10.934;2023-01-24T08:36:22;3.50;79.30
26707;DHT22;14319;49.422;10.934;2023-01-24T08:38:24;3.60;78.80
26707;DHT22;14319;49.422;10.934;2023-01-24T08:40:25;3.60;78.90
26707;DHT22;14319;49.422;10.934;2023-01-24T08:42:26;3.50;78.70
26707;DHT22;14319;49.422;10.934;2023-01-24T08:44:26;3.50;78.70
26707;DHT22;14319;49.422;10.934;2023-01-24T08:46:27;3.50;79.00
26707;DHT22;14319;49.422;10.934;2023-01-24T08:48:28;3.60;79.10
26707;DHT22;14319;49.422;10.934;2023-01-24T08:50:28;3.60;79.00
26707;DHT22;14319;49.422;10.934;2023-01-24T08:52:29;3.60;78.50
26707;DHT22;14319;49.422;10.934;2023-01-24T08:54:29;3.60;79.10
26707;DHT22;14319;49.422;10.934;2023-01-24T08:56:33;3.60;78.60
26707;DHT22;14319;49.422;10.934;2023-01-24T08:58:33;3.60;78.20
26707;DHT22;14319;49.422;10.934;2023-01-24T09:00:34;3.70;78.40
26707;DHT22;14319;49.422;10.934;2023-01-24T09:02:34;3.70;78.50
26707;DHT22;14319;49.422;10.934;2023-01-24T09:04:38;3.70;78.00
26707;DHT22;14319;49.422;10.934;2023-01-24T09:06:38;3.60;78.90
26707;DHT22;14319;49.422;10.934;2023-01-24T09:08:39;3.60;78.90
26707;DHT22;14319;49.422;10.934;2023-01-24T09:10:39;3.70;78.90
26707;DHT22;14319;49.422;10.934;2023-01-24T09:12:40;3.70;78.70
26707;DHT22;14319;49.422;10.934;2023-01-24T09:14:40;3.80;78.50
26707;DHT22;14319;49.422;10.934;2023-01-24T09:16:40;3.80;77.90
26707;DHT22;14319;49.422;10.934;2023-01-24T09:18:41;3.90;77.60
26707;DHT22;14319;49.422;10.934;2023-01-24T09:20:42;3.80;77.70
26707;DHT22;14319;49.422;10.934;2023-01-24T09:22:42;3.70;78.60
26707;DHT22;14319;49.422;10.934;2023-01-24T09:24:43;3.70;78.30
26707;DHT22;14319;49.422;10.934;2023-01-24T09:26:44;3.70;78.40
26707;DHT22;14319;49.422;10.934;2023-01-24T09:28:44;3.60;78.60
26707;DHT22;14319;49.422;10.934;2023-01-24T09:30:46;3.50;79.20
26707;DHT22;14319;49.422;10.934;2023-01-24T09:32:47;3.60;78.90
26707;DHT22;14319;49.422;10.934;2023-01-24T09:34:47;3.50;79.00
26707;DHT22;14319;49.422;10.934;2023-01-24T09:36:48;3.60;79.80
26707;DHT22;14319;49.422;10.934;2023-01-24T09:38:49;3.60;79.20
26707;DHT22;14319;49.422;10.934;2023-01-24T09:40:54;3.60;79.40
26707;DHT22;14319;49.422;10.934;2023-01-24T09:47:33;3.70;79.50
26707;DHT22;14319;49.422;10.934;2023-01-24T09:51:35;3.70;78.80
26707;DHT22;14319;49.422;10.934;2023-01-24T09:53:41;3.80;78.50
26707;DHT22;14319;49.422;10.934;2023-01-24T09:55:42;3.70;79.30
26707;DHT22;14319;49.422;10.934;2023-01-24T09:57:50;3.70;79.20
26707;DHT22;14319;49.422;10.934;2023-01-24T09:59:57;3.80;78.30
26707;DHT22;14319;49.422;10.934;2023-01-24T10:01:58;3.80;78.70
26707;DHT22;14319;49.422;10.934;2023-01-24T10:03:59;3.80;78.50
26707;DHT22;14319;49.422;10.934;2023-01-24T10:06:00;3.80;78.50
26707;DHT22;14319;49.422;10.934;2023-01-24T10:08:40;3.70;78.80
26707;DHT22;14319;49.422;10.934;2023-01-24T10:10:37;3.80;78.90
26707;DHT22;14319;49.422;10.934;2023-01-24T10:14:53;3.80;79.20
26707;DHT22;14319;49.422;10.934;2023-01-24T10:17:18;3.80;78.80
26707;DHT22;14319;49.422;10.934;2023-01-24T10:23:59;3.80;79.40
26707;DHT22;14319;49.422;10.934;2023-01-24T10:26:03;3.90;79.30
26707;DHT22;14319;49.422;10.934;2023-01-24T10:28:08;3.80;79.10
26707;DHT22;14319;49.422;10.934;2023-01-24T10:30:20;3.70;79.40
26707;DHT22;14319;49.422;10.934;2023-01-24T10:32:26;3.70;79.80
26707;DHT22;14319;49.422;10.934;2023-01-24T10:36:33;3.90;79.80
26707;DHT22;14319;49.422;10.934;2023-01-24T10:38:38;3.80;79.10
26707;DHT22;14319;49.422;10.934;2023-01-24T10:40:48;3.80;79.60
26707;DHT22;14319;49.422;10.934;2023-01-24T10:42:49;3.80;79.20
26707;DHT22;14319;49.422;10.934;2023-01-24T10:44:51;3.90;78.90
26707;DHT22;14319;49.422;10.934;2023-01-24T10:49:14;3.80;78.70
26707;DHT22;14319;49.422;10.934;2023-01-24T10:51:17;3.90;79.10
26707;DHT22;14319;49.422;10.934;2023-01-24T10:53:21;3.90;78.50
26707;DHT22;14319;49.422;10.934;2023-01-24T10:59:24;4.10;78.00
26707;DHT22;14319;49.422;10.934;2023-01-24T11:01:31;4.10;78.20
26707;DHT22;14319;49.422;10.934;2023-01-24T11:03:33;4.10;78.00
26707;DHT22;14319;49.422;10.934;2023-01-24T11:05:46;4.00;78.20
26707;DHT22;14319;49.422;10.934;2023-01-24T11:07:49;3.80;78.70
26707;DHT22;14319;49.422;10.934;2023-01-24T11:09:50;3.80;79.70
26707;DHT22;14319;49.422;10.934;2023-01-24T11:11:51;3.90;79.50
26707;DHT22;14319;49.422;10.934;2023-01-24T11:13:59;3.90;79.70
26707;DHT22;14319;49.422;10.934;2023-01-24T11:16:01;4.10;79.30
26707;DHT22;14319;49.422;10.934;2023-01-24T11:18:06;4.20;79.10
26707;DHT22;14319;49.422;10.934;2023-01-24T11:20:16;4.20;78.10
26707;DHT22;14319;49.422;10.934;2023-01-24T11:22:27;4.20;77.30
26707;DHT22;14319;49.422;10.934;2023-01-24T11:24:33;4.20;77.70
26707;DHT22;14319;49.422;10.934;2023-01-24T11:27:01;4.10;77.90
26707;DHT22;14319;49.422;10.934;2023-01-24T11:29:03;4.20;78.70
26707;DHT22;14319;49.422;10.934;2023-01-24T11:31:17;4.20;78.40
26707;DHT22;14319;49.422;10.934;2023-01-24T11:35:35;4.20;77.90
26707;DHT22;14319;49.422;10.934;2023-01-24T11:39:57;4.20;77.90
26707;DHT22;14319;49.422;10.934;2023-01-24T11:42:04;4.30;77.90
26707;DHT22;14319;49.422;10.934;2023-01-24T11:48:39;4.50;77.80
26707;DHT22;14319;49.422;10.934;2023-01-24T11:50:47;4.60;76.60
26707;DHT22;14319;49.422;10.934;2023-01-24T11:53:06;4.70;76.00
26707;DHT22;14319;49.422;10.934;2023-01-24T12:03:53;4.60;76.20
26707;DHT22;14319;49.422;10.934;2023-01-24T12:10:28;4.50;76.80
26707;DHT22;14319;49.422;10.934;2023-01-24T12:19:01;4.60;76.10
26707;DHT22;14319;49.422;10.934;2023-01-24T12:21:05;4.50;76.40
26707;DHT22;14319;49.422;10.934;2023-01-24T12:23:11;4.40;76.40
26707;DHT22;14319;49.422;10.934;2023-01-24T12:25:34;4.40;76.70
26707;DHT22;14319;49.422;10.934;2023-01-24T12:27:36;4.30;77.10
26707;DHT22;14319;49.422;10.934;2023-01-24T12:29:41;4.30;77.00
26707;DHT22;14319;49.422;10.934;2023-01-24T12:31:54;4.20;77.30
26707;DHT22;14319;49.422;10.934;2023-01-24T12:34:04;4.20;78.00
26707;DHT22;14319;49.422;10.934;2023-01-24T12:36:16;4.20;78.10
26707;DHT22;14319;49.422;10.934;2023-01-24T12:40:34;4.10;78.40
26707;DHT22;14319;49.422;10.934;2023-01-24T12:44:42;4.10;78.20
26707;DHT22;14319;49.422;10.934;2023-01-24T12:46:47;4.20;79.10
26707;DHT22;14319;49.422;10.934;2023-01-24T12:48:50;4.30;78.80
26707;DHT22;14319;49.422;10.934;2023-01-24T12:50:56;4.50;78.50
26707;DHT22;14319;49.422;10.934;2023-01-24T12:55:20;4.50;78.70
26707;DHT22;14319;49.422;10.934;2023-01-24T12:57:27;4.50;78.30
26707;DHT22;14319;49.422;10.934;2023-01-24T12:59:28;4.60;77.30
26707;DHT22;14319;49.422;10.934;2023-01-24T13:06:08;4.50;76.70
26707;DHT22;14319;49.422;10.934;2023-01-24T13:08:31;4.50;77.30
26707;DHT22;14319;49.422;10.934;2023-01-24T13:12:42;4.20;78.40
26707;DHT22;14319;49.422;10.934;2023-01-24T13:14:54;4.00;79.50
26707;DHT22;14319;49.422;10.934;2023-01-24T13:19:22;3.90;79.50
26707;DHT22;14319;49.422;10.934;2023-01-24T13:23:35;4.10;79.20
26707;DHT22;14319;49.422;10.934;2023-01-24T13:25:41;4.20;78.50
26707;DHT22;14319;49.422;10.934;2023-01-24T13:32:05;4.10;79.40
26707;DHT22;14319;49.422;10.934;2023-01-24T13:34:09;4.10;79.20
26707;DHT22;14319;49.422;10.934;2023-01-24T13:36:15;3.80;79.60
26707;DHT22;14319;49.422;10.934;2023-01-24T13:38:26;3.70;80.90
26707;DHT22;14319;49.422;10.934;2023-01-24T13:40:28;3.60;80.80
26707;DHT22;14319;49.422;10.934;2023-01-24T13:42:35;3.80;80.80
26707;DHT22;14319;49.422;10.934;2023-01-24T13:44:37;3.80;80.70
26707;DHT22;14319;49.422;10.934;2023-01-24T13:50:41;4.00;80.10
26707;DHT22;14319;49.422;10.934;2023-01-24T13:52:44;4.00;80.30
26707;DHT22;14319;49.422;10.934;2023-01-24T13:54:44;3.90;80.40
26707;DHT22;14319;49.422;10.934;2023-01-24T13:59:11;3.90;80.00
26707;DHT22;14319;49.422;10.934;2023-01-24T14:01:14;3.80;80.20
26707;DHT22;14319;49.422;10.934;2023-01-24T14:07:40;4.00;79.70
26707;DHT22;14319;49.422;10.934;2023-01-24T14:09:41;3.90;79.90
26707;DHT22;14319;49.422;10.934;2023-01-24T14:11:52;3.80;79.60
26707;DHT22;14319;49.422;10.934;2023-01-24T14:13:55;3.80;80.10
26707;DHT22;14319;49.422;10.934;2023-01-24T14:15:56;3.70;80.10
26707;DHT22;14319;49.422;10.934;2023-01-24T14:17:57;3.70;81.30
26707;DHT22;14319;49.422;10.934;2023-01-24T14:19:57;3.70;81.70
26707;DHT22;14319;49.422;10.934;2023-01-24T14:21:59;3.70;81.60
26707;DHT22;14319;49.422;10.934;2023-01-24T14:24:21;3.60;80.90
26707;DHT22;14319;49.422;10.934;2023-01-24T14:26:23;3.70;81.30
26707;DHT22;14319;49.422;10.934;2023-01-24T14:28:38;3.60;81.10
26707;DHT22;14319;49.422;10.934;2023-01-24T14:30:42;3.70;81.20
26707;DHT22;14319;49.422;10.934;2023-01-24T14:32:49;3.80;81.00
26707;DHT22;14319;49.422;10.934;2023-01-24T14:37:20;3.70;80.70
26707;DHT22;14319;49.422;10.934;2023-01-24T14:39:21;3.80;80.80